sensor_id;sensor_type;location;lat;lon;timestamp;temperature;humidity
3678;DHT22;1855;50.934;6.958;2024-01-15T00:00:56;1.30;99.90
3678;DHT22;1855;50.934;6.958;2024-01-15T00:03:24;1.20;99.90
3678;DHT22;1855;50.934;6.958;2024-01-15T00:05:50;1.20;99.90
3678;DHT22;1855;50.934;6.958;2024-01-15T00:08:17;1.20;99.90
3678;DHT22;1855;50.934;6.958;2024-01-15T00:10:44;1.10;99.90
3678;DHT22;1855;50.934;6.958;2024-01-15T00:13:11;1.10;99.90
3678;DHT22;1855;50.934;6.958;2024-01-15T00:15:37;1.00;99.90
3678;DHT22;1855;50.934;6.958;2024-01-15T00:18:04;1.00;99.90
3678;DHT22;1855;50.934;6.958;2024-01-15T00:20:33;1.00;99.90
3678;DHT22;1855;50.934;6.958;2024-01-15T00:22:59;1.00;99.90
3678;DHT22;1855;50.934;6.958;2024-01-15T00:25:26;1.00;99.90
3678;DHT22;1855;50.934;6.958;2024-01-15T00:27:53;1.00;99.90
3678;DHT22;1855;50.934;6.958;2024-01-15T00:30:20;1.00;99.90
3678;DHT22;1855;50.934;6.958;2024-01-15T00:32:46;0.90;99.90
3678;DHT22;1855;50.934;6.958;2024-01-15T00:35:13;0.80;99.90
3678;DHT22;1855;50.934;6.958;2024-01-15T00:37:41;0.80;99.90
3678;DHT22;1855;50.934;6.958;2024-01-15T00:40:09;0.70;99.90
3678;DHT22;1855;50.934;6.958;2024-01-15T00:42:35;0.70;99.90
3678;DHT22;1855;50.934;6.958;2024-01-15T00:45:03;0.70;99.90
3678;DHT22;1855;50.934;6.958;2024-01-15T00:47:30;0.70;99.90
3678;DHT22;1855;50.934;6.958;2024-01-15T00:49:57;0.70;99.90
3678;DHT22;1855;50.934;6.958;2024-01-15T00:52:24;0.70;99.90
3678;DHT22;1855;50.934;6.958;2024-01-15T00:54:52;0.70;99.90
3678;DHT22;1855;50.934;6.958;2024-01-15T00:57:19;0.70;99.90
3678;DHT22;1855;50.934;6.958;2024-01-15T00:59:46;0.70;99.90
3678;DHT22;1855;50.934;6.958;2024-01-15T01:02:13;0.60;99.90
3678;DHT22;1855;50.934;6.958;2024-01-15T01:04:40;0.70;99.90
3678;DHT22;1855;50.934;6.958;2024-01-15T01:07:07;0.70;99.90
3678;DHT22;1855;50.934;6.958;2024-01-15T01:09:34;0.70;99.90
3678;DHT22;1855;50.934;6.958;2024-01-15T01:12:02;0.70;99.90
3678;DHT22;1855;50.934;6.958;2024-01-15T01:14:29;0.70;99.90
3678;DHT22;1855;50.934;6.958;2024-01-15T01:16:56;0.70;99.90
3678;DHT22;1855;50.934;6.958;2024-01-15T01:19:22;0.70;99.90
3678;DHT22;1855;50.934;6.958;2024-01-15T01:21:50;0.70;99.90
3678;DHT22;1855;50.934;6.958;2024-01-15T01:24:17;0.70;99.90
3678;DHT22;1855;50.934;6.958;2024-01-15T01:26:44;0.70;99.90
3678;DHT22;1855;50.934;6.958;2024-01-15T01:29:13;0.70;99.90
3678;DHT22;1855;50.934;6.958;2024-01-15T01:31:43;0.70;99.90
3678;DHT22;1855;50.934;6.958;2024-01-15T01:34:09;0.70;99.90
3678;DHT22;1855;50.934;6.958;2024-01-15T01:36:36;0.60;99.90
3678;DHT22;1855;50.934;6.958;2024-01-15T01:39:03;0.70;99.90
3678;DHT22;1855;50.934;6.958;2024-01-15T01:41:30;0.70;99.90
3678;DHT22;1855;50.934;6.958;2024-01-15T01:43:57;0.70;99.90
3678;DHT22;1855;50.934;6.958;2024-01-15T01:46:27;0.70;99.90
3678;DHT22;1855;50.934;6.958;2024-01-15T01:48:55;0.70;99.90
3678;DHT22;1855;50.934;6.958;2024-01-15T01:51:23;0.70;99.90
3678;DHT22;1855;50.934;6.958;2024-01-15T01:53:50;0.70;99.90
3678;DHT22;1855;50.934;6.958;2024-01-15T01:56:18;0.70;99.90
3678;DHT22;1855;50.934;6.958;2024-01-15T01:58:45;0.70;99.90
3678;DHT22;1855;50.934;6.958;2024-01-15T02:01:13;0.70;99.90
3678;DHT22;1855;50.934;6.958;2024-01-15T02:03:43;0.70;99.90
3678;DHT22;1855;50.934;6.958;2024-01-15T02:06:10;0.80;99.90
3678;DHT22;1855;50.934;6.958;2024-01-15T02:08:36;0.80;99.90
3678;DHT22;1855;50.934;6.958;2024-01-15T02:11:04;0.80;99.90
3678;DHT22;1855;50.934;6.958;2024-01-15T02:13:30;0.80;99.90
3678;DHT22;1855;50.934;6.958;2024-01-15T02:15:57;0.80;99.90
3678;DHT22;1855;50.934;6.958;2024-01-15T02:18:24;0.90;99.90
3678;DHT22;1855;50.934;6.958;2024-01-15T02:20:52;0.90;99.90
3678;DHT22;1855;50.934;6.958;2024-01-15T02:23:20;0.90;99.90
3678;DHT22;1855;50.934;6.958;2024-01-15T02:25:47;0.90;99.90
3678;DHT22;1855;50.934;6.958;2024-01-15T02:28:15;0.90;99.90
3678;DHT22;1855;50.934;6.958;2024-01-15T02:30:42;0.90;99.90
3678;DHT22;1855;50.934;6.958;2024-01-15T02:33:10;0.90;99.90
3678;DHT22;1855;50.934;6.958;2024-01-15T02:35:37;0.90;99.90
3678;DHT22;1855;50.934;6.958;2024-01-15T02:38:04;0.90;99.90
3678;DHT22;1855;50.934;6.958;2024-01-15T02:40:33;1.00;99.90
3678;DHT22;1855;50.934;6.958;2024-01-15T02:43:00;0.90;99.90
3678;DHT22;1855;50.934;6.958;2024-01-15T02:45:27;0.90;99.90
3678;DHT22;1855;50.934;6.958;2024-01-15T02:47:53;1.00;99.90
3678;DHT22;1855;50.934;6.958;2024-01-15T02:50:20;1.00;99.90
3678;DHT22;1855;50.934;6.958;2024-01-15T02:52:47;1.00;99.90
3678;DHT22;1855;50.934;6.958;2024-01-15T02:55:14;1.00;99.90
3678;DHT22;1855;50.934;6.958;2024-01-15T02:57:42;1.00;99.90
3678;DHT22;1855;50.934;6.958;2024-01-15T03:00:09;1.00;99.90
3678;DHT22;1855;50.934;6.958;2024-01-15T03:02:37;1.00;99.90
3678;DHT22;1855;50.934;6.958;2024-01-15T03:05:06;1.00;99.90
3678;DHT22;1855;50.934;6.958;2024-01-15T03:07:33;1.00;99.90
3678;DHT22;1855;50.934;6.958;2024-01-15T03:10:00;1.00;99.90
3678;DHT22;1855;50.934;6.958;2024-01-15T03:12:26;1.00;99.90
3678;DHT22;1855;50.934;6.958;2024-01-15T03:14:55;1.00;99.90
3678;DHT22;1855;50.934;6.958;2024-01-15T03:17:21;1.00;99.90
3678;DHT22;1855;50.934;6.958;2024-01-15T03:19:48;1.00;99.90
3678;DHT22;1855;50.934;6.958;2024-01-15T03:22:16;1.00;99.90
3678;DHT22;1855;50.934;6.958;2024-01-15T03:24:43;1.10;99.90
3678;DHT22;1855;50.934;6.958;2024-01-15T03:27:10;1.10;99.90
3678;DHT22;1855;50.934;6.958;2024-01-15T03:29:36;1.10;99.90
3678;DHT22;1855;50.934;6.958;2024-01-15T03:32:05;1.10;99.90
3678;DHT22;1855;50.934;6.958;2024-01-15T03:34:32;1.10;99.90
3678;DHT22;1855;50.934;6.958;2024-01-15T03:36:58;1.10;99.90
3678;DHT22;1855;50.934;6.958;2024-01-15T03:39:25;1.10;99.90
3678;DHT22;1855;50.934;6.958;2024-01-15T03:41:52;1.10;99.90
3678;DHT22;1855;50.934;6.958;2024-01-15T03:44:19;1.10;99.90
3678;DHT22;1855;50.934;6.958;2024-01-15T03:46:45;1.10;99.90
3678;DHT22;1855;50.934;6.958;2024-01-15T03:49:14;1.10;99.90
3678;DHT22;1855;50.934;6.958;2024-01-15T03:51:40;1.10;99.90
3678;DHT22;1855;50.934;6.958;2024-01-15T03:54:07;1.20;99.90
3678;DHT22;1855;50.934;6.958;2024-01-15T03:56:34;1.10;99.90
3678;DHT22;1855;50.934;6.958;2024-01-15T03:59:00;1.20;99.90
3678;DHT22;1855;50.934;6.958;2024-01-15T04:01:27;1.20;99.90
3678;DHT22;1855;50.934;6.958;2024-01-15T04:03:55;1.20;99.90
3678;DHT22;1855;50.934;6.958;2024-01-15T04:06:23;1.20;99.90
3678;DHT22;1855;50.934;6.958;2024-01-15T04:08:50;1.20;99.90
3678;DHT22;1855;50.934;6.958;2024-01-15T04:11:16;1.20;99.90
3678;DHT22;1855;50.934;6.958;2024-01-15T04:13:43;1.20;99.90
3678;DHT22;1855;50.934;6.958;2024-01-15T04:16:10;1.20;99.90
3678;DHT22;1855;50.934;6.958;2024-01-15T04:18:36;1.20;99.90
3678;DHT22;1855;50.934;6.958;2024-01-15T04:21:04;1.10;99.90
3678;DHT22;1855;50.934;6.958;2024-01-15T04:23:32;1.10;99.90
3678;DHT22;1855;50.934;6.958;2024-01-15T04:25:59;1.10;99.90
3678;DHT22;1855;50.934;6.958;2024-01-15T04:28:26;1.10;99.90
3678;DHT22;1855;50.934;6.958;2024-01-15T04:30:53;1.10;99.90
3678;DHT22;1855;50.934;6.958;2024-01-15T04:33:19;1.20;99.90
3678;DHT22;1855;50.934;6.958;2024-01-15T04:35:46;1.20;99.90
3678;DHT22;1855;50.934;6.958;2024-01-15T04:38:13;1.20;99.90
3678;DHT22;1855;50.934;6.958;2024-01-15T04:40:41;1.20;99.90
3678;DHT22;1855;50.934;6.958;2024-01-15T04:43:07;1.20;99.90
3678;DHT22;1855;50.934;6.958;2024-01-15T04:45:34;1.20;99.90
3678;DHT22;1855;50.934;6.958;2024-01-15T04:48:01;1.30;99.90
3678;DHT22;1855;50.934;6.958;2024-01-15T04:50:28;1.30;99.90
3678;DHT22;1855;50.934;6.958;2024-01-15T04:52:55;1.30;99.90
3678;DHT22;1855;50.934;6.958;2024-01-15T04:55:22;1.30;99.90
3678;DHT22;1855;50.934;6.958;2024-01-15T04:57:50;1.30;99.90
3678;DHT22;1855;50.934;6.958;2024-01-15T05:00:17;1.40;99.90
3678;DHT22;1855;50.934;6.958;2024-01-15T05:02:44;1.40;99.90
3678;DHT22;1855;50.934;6.958;2024-01-15T05:05:10;1.40;99.90
3678;DHT22;1855;50.934;6.958;2024-01-15T05:07:37;1.50;99.90
3678;DHT22;1855;50.934;6.958;2024-01-15T05:10:04;1.50;99.90
3678;DHT22;1855;50.934;6.958;2024-01-15T05:12:32;1.50;99.90
3678;DHT22;1855;50.934;6.958;2024-01-15T05:15:01;1.50;99.90
3678;DHT22;1855;50.934;6.958;2024-01-15T05:17:27;1.50;99.90
3678;DHT22;1855;50.934;6.958;2024-01-15T05:19:54;1.50;99.90
3678;DHT22;1855;50.934;6.958;2024-01-15T05:22:21;1.50;99.90
3678;DHT22;1855;50.934;6.958;2024-01-15T05:24:50;1.50;99.90
3678;DHT22;1855;50.934;6.958;2024-01-15T05:27:16;1.50;99.90
3678;DHT22;1855;50.934;6.958;2024-01-15T05:29:43;1.50;99.90
3678;DHT22;1855;50.934;6.958;2024-01-15T05:32:11;1.50;99.90
3678;DHT22;1855;50.934;6.958;2024-01-15T05:34:38;1.50;99.90
3678;DHT22;1855;50.934;6.958;2024-01-15T05:37:05;1.50;99.90
3678;DHT22;1855;50.934;6.958;2024-01-15T05:39:31;1.60;99.90
3678;DHT22;1855;50.934;6.958;2024-01-15T05:41:58;1.60;99.90
3678;DHT22;1855;50.934;6.958;2024-01-15T05:44:25;1.60;99.90
3678;DHT22;1855;50.934;6.958;2024-01-15T05:46:52;1.60;99.90
3678;DHT22;1855;50.934;6.958;2024-01-15T05:49:20;1.60;99.90
3678;DHT22;1855;50.934;6.958;2024-01-15T05:51:47;1.60;99.90
3678;DHT22;1855;50.934;6.958;2024-01-15T05:54:14;1.60;99.90
3678;DHT22;1855;50.934;6.958;2024-01-15T05:56:41;1.60;99.90
3678;DHT22;1855;50.934;6.958;2024-01-15T05:59:07;1.50;99.90
3678;DHT22;1855;50.934;6.958;2024-01-15T06:01:34;1.50;99.90
3678;DHT22;1855;50.934;6.958;2024-01-15T06:04:01;1.50;99.90
3678;DHT22;1855;50.934;6.958;2024-01-15T06:06:29;1.50;99.90
3678;DHT22;1855;50.934;6.958;2024-01-15T06:08:57;1.50;99.90
3678;DHT22;1855;50.934;6.958;2024-01-15T06:11:30;1.50;99.90
3678;DHT22;1855;50.934;6.958;2024-01-15T06:13:57;1.60;99.90
3678;DHT22;1855;50.934;6.958;2024-01-15T06:16:24;1.60;99.90
3678;DHT22;1855;50.934;6.958;2024-01-15T06:18:51;1.60;99.90
3678;DHT22;1855;50.934;6.958;2024-01-15T06:21:17;1.60;99.90
3678;DHT22;1855;50.934;6.958;2024-01-15T06:23:45;1.50;99.90
3678;DHT22;1855;50.934;6.958;2024-01-15T06:26:12;1.60;99.90
3678;DHT22;1855;50.934;6.958;2024-01-15T06:28:39;1.50;99.90
3678;DHT22;1855;50.934;6.958;2024-01-15T06:31:06;1.60;99.90
3678;DHT22;1855;50.934;6.958;2024-01-15T06:33:33;1.60;99.90
3678;DHT22;1855;50.934;6.958;2024-01-15T06:36:00;1.60;99.90
3678;DHT22;1855;50.934;6.958;2024-01-15T06:38:27;1.60;99.90
3678;DHT22;1855;50.934;6.958;2024-01-15T06:40:55;1.60;99.90
3678;DHT22;1855;50.934;6.958;2024-01-15T06:43:22;1.60;99.90
3678;DHT22;1855;50.934;6.958;2024-01-15T06:45:48;1.60;99.90
3678;DHT22;1855;50.934;6.958;2024-01-15T06:48:15;1.60;99.90
3678;DHT22;1855;50.934;6.958;2024-01-15T06:50:42;1.60;99.90
3678;DHT22;1855;50.934;6.958;2024-01-15T06:53:09;1.60;99.90
3678;DHT22;1855;50.934;6.958;2024-01-15T06:55:36;1.60;99.90
3678;DHT22;1855;50.934;6.958;2024-01-15T06:58:04;1.60;99.90
3678;DHT22;1855;50.934;6.958;2024-01-15T07:00:31;1.60;99.90
3678;DHT22;1855;50.934;6.958;2024-01-15T07:02:57;1.60;99.90
3678;DHT22;1855;50.934;6.958;2024-01-15T07:05:24;1.60;99.90
3678;DHT22;1855;50.934;6.958;2024-01-15T07:07:51;1.50;99.90
3678;DHT22;1855;50.934;6.958;2024-01-15T07:10:17;1.50;99.90
3678;DHT22;1855;50.934;6.958;2024-01-15T07:12:44;1.50;99.90
3678;DHT22;1855;50.934;6.958;2024-01-15T07:15:13;1.50;99.90
3678;DHT22;1855;50.934;6.958;2024-01-15T07:17:40;1.50;99.90
3678;DHT22;1855;50.934;6.958;2024-01-15T07:20:07;1.50;99.90
3678;DHT22;1855;50.934;6.958;2024-01-15T07:22:36;1.50;99.90
3678;DHT22;1855;50.934;6.958;2024-01-15T07:25:03;1.50;99.90
3678;DHT22;1855;50.934;6.958;2024-01-15T07:27:30;1.50;99.90
3678;DHT22;1855;50.934;6.958;2024-01-15T07:29:57;1.50;99.90
3678;DHT22;1855;50.934;6.958;2024-01-15T07:32:25;1.60;99.90
3678;DHT22;1855;50.934;6.958;2024-01-15T07:34:51;1.60;99.90
3678;DHT22;1855;50.934;6.958;2024-01-15T07:37:18;1.60;99.90
3678;DHT22;1855;50.934;6.958;2024-01-15T07:39:45;1.60;99.90
3678;DHT22;1855;50.934;6.958;2024-01-15T07:42:11;1.60;99.90
3678;DHT22;1855;50.934;6.958;2024-01-15T07:44:38;1.60;99.90
3678;DHT22;1855;50.934;6.958;2024-01-15T07:47:05;1.60;99.90
3678;DHT22;1855;50.934;6.958;2024-01-15T07:49:33;1.70;99.90
3678;DHT22;1855;50.934;6.958;2024-01-15T07:52:00;1.60;99.90
3678;DHT22;1855;50.934;6.958;2024-01-15T07:54:27;1.70;99.90
3678;DHT22;1855;50.934;6.958;2024-01-15T07:56:55;1.70;99.90
3678;DHT22;1855;50.934;6.958;2024-01-15T07:59:23;1.80;99.90
3678;DHT22;1855;50.934;6.958;2024-01-15T08:01:50;1.80;99.90
3678;DHT22;1855;50.934;6.958;2024-01-15T08:04:16;1.80;99.90
3678;DHT22;1855;50.934;6.958;2024-01-15T08:06:45;1.80;99.90
3678;DHT22;1855;50.934;6.958;2024-01-15T08:09:12;1.80;99.90
3678;DHT22;1855;50.934;6.958;2024-01-15T08:11:39;1.80;99.90
3678;DHT22;1855;50.934;6.958;2024-01-15T08:14:06;1.80;99.90
3678;DHT22;1855;50.934;6.958;2024-01-15T08:16:33;1.90;99.90
3678;DHT22;1855;50.934;6.958;2024-01-15T08:19:00;1.90;99.90
3678;DHT22;1855;50.934;6.958;2024-01-15T08:21:27;1.90;99.90
3678;DHT22;1855;50.934;6.958;2024-01-15T08:23:56;2.00;99.90
3678;DHT22;1855;50.934;6.958;2024-01-15T08:26:23;2.00;99.90
3678;DHT22;1855;50.934;6.958;2024-01-15T08:28:50;2.00;99.90
3678;DHT22;1855;50.934;6.958;2024-01-15T08:31:17;2.10;99.90
3678;DHT22;1855;50.934;6.958;2024-01-15T08:33:43;2.10;99.90
3678;DHT22;1855;50.934;6.958;2024-01-15T08:36:10;2.10;99.90
3678;DHT22;1855;50.934;6.958;2024-01-15T08:38:37;2.00;99.90
3678;DHT22;1855;50.934;6.958;2024-01-15T08:41:05;2.00;99.90
3678;DHT22;1855;50.934;6.958;2024-01-15T08:43:33;2.00;99.90
3678;DHT22;1855;50.934;6.958;2024-01-15T08:46:00;1.90;99.90
3678;DHT22;1855;50.934;6.958;2024-01-15T08:48:27;1.90;99.90
3678;DHT22;1855;50.934;6.958;2024-01-15T08:50:54;1.90;99.90
3678;DHT22;1855;50.934;6.958;2024-01-15T08:53:22;1.90;99.90
3678;DHT22;1855;50.934;6.958;2024-01-15T08:55:48;1.90;99.90
3678;DHT22;1855;50.934;6.958;2024-01-15T08:58:17;1.90;99.90
3678;DHT22;1855;50.934;6.958;2024-01-15T09:00:43;1.80;99.90
3678;DHT22;1855;50.934;6.958;2024-01-15T09:03:10;1.80;99.90
3678;DHT22;1855;50.934;6.958;2024-01-15T09:05:37;1.80;99.90
3678;DHT22;1855;50.934;6.958;2024-01-15T09:08:04;1.80;99.90
3678;DHT22;1855;50.934;6.958;2024-01-15T09:10:31;1.80;99.90
3678;DHT22;1855;50.934;6.958;2024-01-15T09:12:58;1.80;99.90
3678;DHT22;1855;50.934;6.958;2024-01-15T09:15:27;1.80;99.90
3678;DHT22;1855;50.934;6.958;2024-01-15T09:17:54;1.80;99.90
3678;DHT22;1855;50.934;6.958;2024-01-15T09:20:22;1.80;99.90
3678;DHT22;1855;50.934;6.958;2024-01-15T09:22:51;1.70;99.90
3678;DHT22;1855;50.934;6.958;2024-01-15T09:25:19;1.70;99.90
3678;DHT22;1855;50.934;6.958;2024-01-15T09:27:46;1.70;99.90
3678;DHT22;1855;50.934;6.958;2024-01-15T09:30:14;1.60;99.90
3678;DHT22;1855;50.934;6.958;2024-01-15T09:32:42;1.50;99.90
3678;DHT22;1855;50.934;6.958;2024-01-15T09:35:09;1.50;99.90
3678;DHT22;1855;50.934;6.958;2024-01-15T09:37:36;1.50;99.90
3678;DHT22;1855;50.934;6.958;2024-01-15T09:40:04;1.40;99.90
3678;DHT22;1855;50.934;6.958;2024-01-15T09:42:32;1.30;99.90
3678;DHT22;1855;50.934;6.958;2024-01-15T09:44:59;1.30;99.90
3678;DHT22;1855;50.934;6.958;2024-01-15T09:47:26;1.30;99.90
3678;DHT22;1855;50.934;6.958;2024-01-15T09:49:54;1.30;99.90
3678;DHT22;1855;50.934;6.958;2024-01-15T09:52:24;1.20;99.90
3678;DHT22;1855;50.934;6.958;2024-01-15T09:54:52;1.20;99.90
3678;DHT22;1855;50.934;6.958;2024-01-15T09:57:18;1.20;99.90
3678;DHT22;1855;50.934;6.958;2024-01-15T09:59:47;1.20;99.90
3678;DHT22;1855;50.934;6.958;2024-01-15T10:02:14;1.20;99.90
3678;DHT22;1855;50.934;6.958;2024-01-15T10:04:44;1.10;99.90
3678;DHT22;1855;50.934;6.958;2024-01-15T10:07:15;1.00;99.90
3678;DHT22;1855;50.934;6.958;2024-01-15T10:09:42;1.10;99.90
3678;DHT22;1855;50.934;6.958;2024-01-15T10:12:09;1.10;99.90
3678;DHT22;1855;50.934;6.958;2024-01-15T10:14:36;1.20;99.90
3678;DHT22;1855;50.934;6.958;2024-01-15T10:17:12;1.30;99.90
3678;DHT22;1855;50.934;6.958;2024-01-15T10:19:39;1.30;99.90
3678;DHT22;1855;50.934;6.958;2024-01-15T10:22:08;1.40;99.90
3678;DHT22;1855;50.934;6.958;2024-01-15T10:24:37;1.30;99.90
3678;DHT22;1855;50.934;6.958;2024-01-15T10:27:08;1.30;99.90
3678;DHT22;1855;50.934;6.958;2024-01-15T10:29:35;1.20;99.90
3678;DHT22;1855;50.934;6.958;2024-01-15T10:32:03;1.20;99.90
3678;DHT22;1855;50.934;6.958;2024-01-15T10:34:32;1.20;99.90
3678;DHT22;1855;50.934;6.958;2024-01-15T10:36:59;1.20;99.90
3678;DHT22;1855;50.934;6.958;2024-01-15T10:39:26;1.30;99.90
3678;DHT22;1855;50.934;6.958;2024-01-15T10:41:54;1.30;99.90
3678;DHT22;1855;50.934;6.958;2024-01-15T10:44:20;1.40;99.90
3678;DHT22;1855;50.934;6.958;2024-01-15T10:46:47;1.40;99.90
3678;DHT22;1855;50.934;6.958;2024-01-15T10:49:14;1.40;99.90
3678;DHT22;1855;50.934;6.958;2024-01-15T10:51:42;1.40;99.90
3678;DHT22;1855;50.934;6.958;2024-01-15T10:54:09;1.30;99.90
3678;DHT22;1855;50.934;6.958;2024-01-15T10:56:37;1.20;99.90
3678;DHT22;1855;50.934;6.958;2024-01-15T10:59:05;1.00;99.90
3678;DHT22;1855;50.934;6.958;2024-01-15T11:01:33;1.00;99.90
3678;DHT22;1855;50.934;6.958;2024-01-15T11:04:00;0.90;99.90
3678;DHT22;1855;50.934;6.958;2024-01-15T11:06:28;1.00;99.90
3678;DHT22;1855;50.934;6.958;2024-01-15T11:09:07;1.00;99.90
3678;DHT22;1855;50.934;6.958;2024-01-15T11:11:35;1.10;99.90
3678;DHT22;1855;50.934;6.958;2024-01-15T11:14:02;1.20;99.90
3678;DHT22;1855;50.934;6.958;2024-01-15T11:16:54;1.30;99.90
3678;DHT22;1855;50.934;6.958;2024-01-15T11:19:21;1.30;99.90
3678;DHT22;1855;50.934;6.958;2024-01-15T11:21:48;1.30;99.90
3678;DHT22;1855;50.934;6.958;2024-01-15T11:24:33;1.30;99.90
3678;DHT22;1855;50.934;6.958;2024-01-15T11:27:00;1.40;99.90
3678;DHT22;1855;50.934;6.958;2024-01-15T11:29:31;1.50;99.90
3678;DHT22;1855;50.934;6.958;2024-01-15T11:32:02;1.50;99.90
3678;DHT22;1855;50.934;6.958;2024-01-15T11:34:55;1.50;99.90
3678;DHT22;1855;50.934;6.958;2024-01-15T11:37:25;1.60;99.90
3678;DHT22;1855;50.934;6.958;2024-01-15T11:39:53;1.80;99.90
3678;DHT22;1855;50.934;6.958;2024-01-15T11:42:21;1.80;99.90
3678;DHT22;1855;50.934;6.958;2024-01-15T11:44:49;1.70;99.90
3678;DHT22;1855;50.934;6.958;2024-01-15T11:50:06;1.70;99.90
3678;DHT22;1855;50.934;6.958;2024-01-15T11:52:34;1.60;99.90
3678;DHT22;1855;50.934;6.958;2024-01-15T11:55:12;1.70;99.90
3678;DHT22;1855;50.934;6.958;2024-01-15T11:57:42;1.70;99.90
3678;DHT22;1855;50.934;6.958;2024-01-15T12:00:12;1.70;99.90
3678;DHT22;1855;50.934;6.958;2024-01-15T12:02:41;1.70;99.90
3678;DHT22;1855;50.934;6.958;2024-01-15T12:05:08;1.70;99.90
3678;DHT22;1855;50.934;6.958;2024-01-15T12:07:35;1.60;99.90
3678;DHT22;1855;50.934;6.958;2024-01-15T12:10:08;1.60;99.90
3678;DHT22;1855;50.934;6.958;2024-01-15T12:12:39;1.60;99.90
3678;DHT22;1855;50.934;6.958;2024-01-15T12:15:10;1.60;99.90
3678;DHT22;1855;50.934;6.958;2024-01-15T12:17:38;1.60;99.90
3678;DHT22;1855;50.934;6.958;2024-01-15T12:20:07;1.60;99.90
3678;DHT22;1855;50.934;6.958;2024-01-15T12:22:34;1.80;99.90
3678;DHT22;1855;50.934;6.958;2024-01-15T12:25:01;2.70;99.90
3678;DHT22;1855;50.934;6.958;2024-01-15T12:27:28;3.40;99.90
3678;DHT22;1855;50.934;6.958;2024-01-15T12:29:55;4.30;99.90
3678;DHT22;1855;50.934;6.958;2024-01-15T12:32:24;5.00;99.90
3678;DHT22;1855;50.934;6.958;2024-01-15T12:34:51;5.20;99.90
3678;DHT22;1855;50.934;6.958;2024-01-15T12:37:19;4.90;99.90
3678;DHT22;1855;50.934;6.958;2024-01-15T12:39:46;4.50;99.90
3678;DHT22;1855;50.934;6.958;2024-01-15T12:42:14;4.10;99.90
3678;DHT22;1855;50.934;6.958;2024-01-15T12:44:42;3.80;99.90
3678;DHT22;1855;50.934;6.958;2024-01-15T12:47:09;3.50;99.90
3678;DHT22;1855;50.934;6.958;2024-01-15T12:49:36;3.20;99.90
3678;DHT22;1855;50.934;6.958;2024-01-15T12:52:03;3.00;99.90
3678;DHT22;1855;50.934;6.958;2024-01-15T12:54:31;3.00;99.90
3678;DHT22;1855;50.934;6.958;2024-01-15T12:56:58;2.80;99.90
3678;DHT22;1855;50.934;6.958;2024-01-15T12:59:25;2.70;99.90
3678;DHT22;1855;50.934;6.958;2024-01-15T13:01:52;2.80;99.90
3678;DHT22;1855;50.934;6.958;2024-01-15T13:04:22;3.10;99.90
3678;DHT22;1855;50.934;6.958;2024-01-15T13:06:49;3.30;99.90
3678;DHT22;1855;50.934;6.958;2024-01-15T13:09:16;3.40;99.90
3678;DHT22;1855;50.934;6.958;2024-01-15T13:11:44;3.40;99.90
3678;DHT22;1855;50.934;6.958;2024-01-15T13:14:11;3.30;99.90
3678;DHT22;1855;50.934;6.958;2024-01-15T13:16:39;3.10;99.90
3678;DHT22;1855;50.934;6.958;2024-01-15T13:19:07;3.00;99.90
3678;DHT22;1855;50.934;6.958;2024-01-15T13:21:34;2.80;99.90
3678;DHT22;1855;50.934;6.958;2024-01-15T13:24:01;2.80;99.90
3678;DHT22;1855;50.934;6.958;2024-01-15T13:26:28;2.70;99.90
3678;DHT22;1855;50.934;6.958;2024-01-15T13:28:56;2.70;99.90
3678;DHT22;1855;50.934;6.958;2024-01-15T13:31:23;2.70;99.90
3678;DHT22;1855;50.934;6.958;2024-01-15T13:33:50;2.70;99.90
3678;DHT22;1855;50.934;6.958;2024-01-15T13:36:17;2.70;99.90
3678;DHT22;1855;50.934;6.958;2024-01-15T13:38:44;2.70;99.90
3678;DHT22;1855;50.934;6.958;2024-01-15T13:41:10;2.70;99.90
3678;DHT22;1855;50.934;6.958;2024-01-15T13:43:37;2.60;99.90
3678;DHT22;1855;50.934;6.958;2024-01-15T13:46:05;2.60;99.90
3678;DHT22;1855;50.934;6.958;2024-01-15T13:48:32;2.60;99.90
3678;DHT22;1855;50.934;6.958;2024-01-15T13:50:59;2.60;99.90
3678;DHT22;1855;50.934;6.958;2024-01-15T13:53:26;2.50;99.90
3678;DHT22;1855;50.934;6.958;2024-01-15T13:55:53;2.50;99.90
3678;DHT22;1855;50.934;6.958;2024-01-15T13:58:19;2.50;99.90
3678;DHT22;1855;50.934;6.958;2024-01-15T14:00:47;2.50;99.90
3678;DHT22;1855;50.934;6.958;2024-01-15T14:03:15;2.50;99.90
3678;DHT22;1855;50.934;6.958;2024-01-15T14:05:42;2.50;99.90
3678;DHT22;1855;50.934;6.958;2024-01-15T14:08:08;2.40;99.90
3678;DHT22;1855;50.934;6.958;2024-01-15T14:10:35;2.40;99.90
3678;DHT22;1855;50.934;6.958;2024-01-15T14:13:03;2.30;99.90
3678;DHT22;1855;50.934;6.958;2024-01-15T14:15:30;2.30;99.90
3678;DHT22;1855;50.934;6.958;2024-01-15T14:17:56;2.20;99.90
3678;DHT22;1855;50.934;6.958;2024-01-15T14:20:25;2.10;99.90
3678;DHT22;1855;50.934;6.958;2024-01-15T14:22:52;2.10;99.90
3678;DHT22;1855;50.934;6.958;2024-01-15T14:25:19;2.10;99.90
3678;DHT22;1855;50.934;6.958;2024-01-15T14:27:46;2.10;99.90
3678;DHT22;1855;50.934;6.958;2024-01-15T14:30:13;2.10;99.90
3678;DHT22;1855;50.934;6.958;2024-01-15T14:32:43;2.10;99.90
3678;DHT22;1855;50.934;6.958;2024-01-15T14:35:10;2.10;99.90
3678;DHT22;1855;50.934;6.958;2024-01-15T14:37:38;2.10;99.90
3678;DHT22;1855;50.934;6.958;2024-01-15T14:40:06;2.10;99.90
3678;DHT22;1855;50.934;6.958;2024-01-15T14:42:34;2.10;99.90
3678;DHT22;1855;50.934;6.958;2024-01-15T14:45:02;2.20;99.90
3678;DHT22;1855;50.934;6.958;2024-01-15T14:47:30;2.10;99.90
3678;DHT22;1855;50.934;6.958;2024-01-15T14:49:57;2.10;99.90
3678;DHT22;1855;50.934;6.958;2024-01-15T14:52:24;2.00;99.90
3678;DHT22;1855;50.934;6.958;2024-01-15T14:54:52;2.00;99.90
3678;DHT22;1855;50.934;6.958;2024-01-15T14:57:18;1.90;99.90
3678;DHT22;1855;50.934;6.958;2024-01-15T14:59:45;1.90;99.90
3678;DHT22;1855;50.934;6.958;2024-01-15T15:02:12;1.90;99.90
3678;DHT22;1855;50.934;6.958;2024-01-15T15:04:40;1.80;99.90
3678;DHT22;1855;50.934;6.958;2024-01-15T15:07:08;1.80;99.90
3678;DHT22;1855;50.934;6.958;2024-01-15T15:09:35;1.80;99.90
3678;DHT22;1855;50.934;6.958;2024-01-15T15:12:05;1.80;99.90
3678;DHT22;1855;50.934;6.958;2024-01-15T15:14:32;1.80;99.90
3678;DHT22;1855;50.934;6.958;2024-01-15T15:17:03;1.80;99.90
3678;DHT22;1855;50.934;6.958;2024-01-15T15:19:30;1.80;99.90
3678;DHT22;1855;50.934;6.958;2024-01-15T15:21:57;1.70;99.90
3678;DHT22;1855;50.934;6.958;2024-01-15T15:24:24;1.70;99.90
3678;DHT22;1855;50.934;6.958;2024-01-15T15:26:50;1.70;99.90
3678;DHT22;1855;50.934;6.958;2024-01-15T15:29:18;1.70;99.90
3678;DHT22;1855;50.934;6.958;2024-01-15T15:31:45;1.70;99.90
3678;DHT22;1855;50.934;6.958;2024-01-15T15:34:14;1.80;99.90
3678;DHT22;1855;50.934;6.958;2024-01-15T15:36:41;1.80;99.90
3678;DHT22;1855;50.934;6.958;2024-01-15T15:39:07;1.80;99.90
3678;DHT22;1855;50.934;6.958;2024-01-15T15:41:35;1.70;99.90
3678;DHT22;1855;50.934;6.958;2024-01-15T15:44:02;1.70;99.90
3678;DHT22;1855;50.934;6.958;2024-01-15T15:46:30;1.80;99.90
3678;DHT22;1855;50.934;6.958;2024-01-15T15:48:57;1.80;99.90
3678;DHT22;1855;50.934;6.958;2024-01-15T15:51:23;1.80;99.90
3678;DHT22;1855;50.934;6.958;2024-01-15T15:53:50;1.80;99.90
3678;DHT22;1855;50.934;6.958;2024-01-15T15:56:18;1.70;99.90
3678;DHT22;1855;50.934;6.958;2024-01-15T15:58:44;1.70;99.90
3678;DHT22;1855;50.934;6.958;2024-01-15T16:01:11;1.60;99.90
3678;DHT22;1855;50.934;6.958;2024-01-15T16:03:39;1.60;99.90
3678;DHT22;1855;50.934;6.958;2024-01-15T16:06:06;1.60;99.90
3678;DHT22;1855;50.934;6.958;2024-01-15T16:08:32;1.50;99.90
3678;DHT22;1855;50.934;6.958;2024-01-15T16:10:59;1.50;99.90
3678;DHT22;1855;50.934;6.958;2024-01-15T16:13:26;1.50;99.90
3678;DHT22;1855;50.934;6.958;2024-01-15T16:15:53;1.50;99.90
3678;DHT22;1855;50.934;6.958;2024-01-15T16:18:19;1.50;99.90
3678;DHT22;1855;50.934;6.958;2024-01-15T16:20:47;1.50;99.90